Time;durP1;ratioP1;P1;durP2;ratioP2;P2;SDS_P1;SDS_P2;PMS_P1;PMS_P2;Temp;Humidity;BMP_temperature;BMP_pressure;BME280_temperature;BME280_humidity;BME280_pressure;Samples;Min_cycle;Max_cycle;Signal;HPM_P1;HPM_P2
2022/01/23 00:03:18;;;;;;;38.10;24.10;;;;;;;;;;12548842;28;20059;-75
2022/01/23 00:09:20;;;;;;;42.75;26.42;;;;;;;;;;12548655;28;20029;-74
2022/01/23 00:21:42;;;;;;;36.78;23.80;;;;;;;;;;12548036;28;20045;-75
2022/01/23 00:34:04;;;;;;;32.72;20.45;;;;;;;;;;12546981;28;20404;-75
2022/01/23 00:40:07;;;;;;;31.37;20.83;;;;;;;;;;12529679;28;20036;-75
2022/01/23 00:52:20;;;;;;;26.48;18.02;;;;;;;;;;12546729;28;20060;-75
2022/01/23 00:58:22;;;;;;;34.67;21.48;;;;;;;;;;12545556;28;20525;-75
2022/01/23 01:04:23;;;;;;;24.17;16.95;;;;;;;;;;12544514;28;20052;-75
2022/01/23 01:10:33;;;;;;;39.65;23.38;;;;;;;;;;12544709;28;20052;-75
2022/01/23 01:16:54;;;;;;;24.33;16.52;;;;;;;;;;12545526;28;20037;-75
2022/01/23 01:35:52;;;;;;;36.88;24.25;;;;;;;;;;12546328;28;20083;-75
2022/01/23 01:41:53;;;;;;;41.17;26.05;;;;;;;;;;12543667;28;20072;-75
2022/01/23 01:47:59;;;;;;;40.33;24.20;;;;;;;;;;12543209;28;20032;-75
2022/01/23 01:54:09;;;;;;;36.15;23.85;;;;;;;;;;12543466;28;20049;-75
2022/01/23 02:50:43;;;;;;;34.10;23.13;;;;;;;;;;12584108;28;20052;-74
2022/01/23 02:56:51;;;;;;;27.45;18.88;;;;;;;;;;12583713;28;20048;-74
2022/01/23 03:03:00;;;;;;;25.35;16.23;;;;;;;;;;12566282;28;20059;-74
2022/01/23 03:34:14;;;;;;;29.20;15.85;;;;;;;;;;12551311;28;20037;-74
2022/01/23 03:40:16;;;;;;;27.85;18.85;;;;;;;;;;12548786;28;20029;-75
2022/01/23 03:52:56;;;;;;;22.65;14.75;;;;;;;;;;12527527;28;20045;-73
2022/01/23 03:58:58;;;;;;;21.30;12.98;;;;;;;;;;12547840;28;20033;-74
2022/01/23 04:05:01;;;;;;;20.73;13.05;;;;;;;;;;12547568;28;20072;-73
2022/01/23 04:11:02;;;;;;;19.83;13.43;;;;;;;;;;12547552;28;20041;-74
2022/01/23 05:08:17;;;;;;;18.10;12.13;;;;;;;;;;12545683;28;20036;-73
2022/01/23 05:20:28;;;;;;;30.23;18.98;;;;;;;;;;12587326;28;20489;-73
2022/01/23 05:26:31;;;;;;;;;;;;;;;;;;12588363;28;20035;-74
2022/01/23 05:32:38;;;;;;;27.45;17.83;;;;;;;;;;12585901;28;19919;-73
2022/01/23 05:38:40;;;;;;;25.98;16.83;;;;;;;;;;12585235;28;20064;-73
2022/01/23 05:44:42;;;;;;;27.90;20.10;;;;;;;;;;12584659;28;20478;-74
2022/01/23 05:50:45;;;;;;;;;;;;;;;;;;12568305;28;20552;-74
2022/01/23 05:57:12;;;;;;;46.67;29.73;;;;;;;;;;12584031;28;19935;-73
2022/01/23 06:03:42;;;;;;;39.47;26.75;;;;;;;;;;12583594;28;20041;-73
2022/01/23 06:09:46;;;;;;;37.33;24.25;;;;;;;;;;12567128;28;20021;-74
2022/01/23 06:15:48;;;;;;;34.20;20.10;;;;;;;;;;12566458;28;20049;-74
2022/01/23 06:21:50;;;;;;;28.30;20.85;;;;;;;;;;12582553;28;20394;-73
2022/01/23 06:28:13;;;;;;;32.53;21.13;;;;;;;;;;12569345;28;20040;-73
2022/01/23 06:34:16;;;;;;;28.70;18.85;;;;;;;;;;12532889;28;20040;-74
2022/01/23 06:40:17;;;;;;;;;;;;;;;;;;12550956;28;20056;-73
2022/01/23 06:46:48;;;;;;;20.73;13.27;;;;;;;;;;12550022;28;19913;-72
2022/01/23 06:52:50;;;;;;;17.70;10.80;;;;;;;;;;12548496;28;20040;-74
2022/01/23 06:58:52;;;;;;;19.27;12.50;;;;;;;;;;12531477;28;20044;-73
2022/01/23 07:04:54;;;;;;;10.47;8.43;;;;;;;;;;12547720;28;20032;-73
2022/01/23 07:11:07;;;;;;;13.30;9.68;;;;;;;;;;12547689;28;20033;-74
2022/01/23 07:17:47;;;;;;;16.40;10.70;;;;;;;;;;12542271;28;20560;-74
2022/01/23 07:24:19;;;;;;;18.55;13.43;;;;;;;;;;12542337;28;20043;-74
2022/01/23 07:30:33;;;;;;;16.90;14.55;;;;;;;;;;12530415;28;20025;-74
2022/01/23 07:36:35;;;;;;;20.52;18.33;;;;;;;;;;12546153;28;20041;-73
2022/01/23 07:42:44;;;;;;;30.85;26.02;;;;;;;;;;12529045;28;20032;-74
2022/01/23 07:49:21;;;;;;;24.23;21.33;;;;;;;;;;12507811;28;20390;-74
2022/01/23 07:55:37;;;;;;;17.30;13.77;;;;;;;;;;12545369;28;20375;-74
2022/01/23 08:01:58;;;;;;;20.60;16.27;;;;;;;;;;12546419;28;20033;-74
2022/01/23 08:08:14;;;;;;;20.50;18.20;;;;;;;;;;12544539;28;20037;-74
2022/01/23 08:14:28;;;;;;;24.33;20.73;;;;;;;;;;12545054;28;20032;-74
2022/01/23 08:20:30;;;;;;;20.45;18.25;;;;;;;;;;12544343;28;20477;-74
2022/01/23 08:26:32;;;;;;;22.63;19.98;;;;;;;;;;12545368;28;20058;-74
2022/01/23 08:32:34;;;;;;;25.40;22.80;;;;;;;;;;12544633;28;20493;-74
2022/01/23 08:38:36;;;;;;;17.65;15.82;;;;;;;;;;12542873;28;20045;-74
2022/01/23 08:44:38;;;;;;;18.90;16.80;;;;;;;;;;12544515;28;20037;-74
2022/01/23 08:50:39;;;;;;;22.07;19.67;;;;;;;;;;12525951;28;20044;-75
2022/01/23 08:56:42;;;;;;;21.33;17.73;;;;;;;;;;12542368;28;20612;-75
2022/01/23 09:08:40;;;;;;;19.75;17.63;;;;;;;;;;12734518;27;20485;-74
2022/01/23 09:14:42;;;;;;;19.70;16.90;;;;;;;;;;12738527;28;20075;-73
2022/01/23 09:26:44;;;;;;;18.30;16.17;;;;;;;;;;12791236;27;20529;-74
2022/01/23 09:38:56;;;;;;;22.08;19.52;;;;;;;;;;12586803;28;20523;-74
2022/01/23 09:44:58;;;;;;;22.83;18.80;;;;;;;;;;12586173;28;20033;-75
2022/01/23 09:51:00;;;;;;;21.63;18.98;;;;;;;;;;12568380;28;20055;-74
2022/01/23 09:57:04;;;;;;;20.63;18.37;;;;;;;;;;12585809;28;20048;-74
2022/01/23 10:03:07;;;;;;;23.35;20.33;;;;;;;;;;12585033;28;20194;-74
2022/01/23 10:09:09;;;;;;;22.02;19.25;;;;;;;;;;12583897;28;20032;-74
2022/01/23 10:15:11;;;;;;;19.85;17.70;;;;;;;;;;12584865;28;20052;-74
2022/01/23 10:21:13;;;;;;;17.13;15.30;;;;;;;;;;12584597;28;20037;-75
2022/01/23 10:27:16;;;;;;;16.67;14.87;;;;;;;;;;12584197;28;20040;-75
2022/01/23 10:33:17;;;;;;;22.23;18.05;;;;;;;;;;12583394;28;20097;-75
2022/01/23 10:39:19;;;;;;;22.50;20.08;;;;;;;;;;12583519;28;20401;-74
2022/01/23 10:51:51;;;;;;;23.90;20.50;;;;;;;;;;12549390;28;20486;-74
2022/01/23 10:57:55;;;;;;;22.90;19.77;;;;;;;;;;12548915;28;20053;-75
2022/01/23 11:04:07;;;;;;;21.98;18.92;;;;;;;;;;12548994;28;20033;-75
2022/01/23 11:10:14;;;;;;;20.45;16.55;;;;;;;;;;12548396;28;20036;-74
2022/01/23 11:23:03;;;;;;;25.90;21.10;;;;;;;;;;12547797;28;20055;-74
2022/01/23 11:29:09;;;;;;;27.35;19.60;;;;;;;;;;12547544;28;20056;-74
2022/01/23 11:35:13;;;;;;;26.73;20.30;;;;;;;;;;12548189;28;20049;-74
2022/01/23 11:53:51;;;;;;;24.25;16.95;;;;;;;;;;12547297;28;20398;-74
2022/01/23 11:59:58;;;;;;;24.95;17.63;;;;;;;;;;12546078;28;20036;-74
2022/01/23 12:06:13;;;;;;;26.90;20.85;;;;;;;;;;12546974;28;20041;-74
2022/01/23 12:12:36;;;;;;;27.23;20.20;;;;;;;;;;12545398;28;20474;-74
2022/01/23 12:18:38;;;;;;;22.40;17.08;;;;;;;;;;12528389;28;20052;-74
2022/01/23 12:24:48;;;;;;;22.27;16.90;;;;;;;;;;12545183;28;20033;-74
2022/01/23 12:30:51;;;;;;;21.58;16.92;;;;;;;;;;12544851;28;20108;-74
2022/01/23 12:36:56;;;;;;;24.13;18.02;;;;;;;;;;12544039;28;20500;-74
2022/01/23 12:43:11;;;;;;;22.38;16.65;;;;;;;;;;12545683;28;20036;-75
2022/01/23 12:49:29;;;;;;;28.17;19.98;;;;;;;;;;12544201;28;20032;-74
2022/01/23 12:55:31;;;;;;;24.83;17.92;;;;;;;;;;12543987;28;20032;-74
2022/01/23 13:01:34;;;;;;;22.95;17.30;;;;;;;;;;12543598;28;20486;-75
2022/01/23 13:07:43;;;;;;;30.30;23.15;;;;;;;;;;12543583;28;20394;-74
2022/01/23 13:13:57;;;;;;;21.65;15.98;;;;;;;;;;12542700;28;20040;-75
2022/01/23 13:26:25;;;;;;;21.23;15.10;;;;;;;;;;12542528;28;20040;-75
2022/01/23 13:32:56;;;;;;;20.40;15.30;;;;;;;;;;12542832;28;20036;-75
2022/01/23 13:38:57;;;;;;;14.77;11.57;;;;;;;;;;12543303;28;20052;-75
2022/01/23 13:58:32;;;;;;;20.05;13.95;;;;;;;;;;12541491;28;20036;-74
2022/01/23 14:04:31;;;;;;;16.33;12.90;;;;;;;;;;12542741;28;20041;-74
2022/01/23 14:10:38;;;;;;;14.57;11.57;;;;;;;;;;12542813;28;20033;-74
2022/01/23 14:16:40;;;;;;;14.02;11.27;;;;;;;;;;12542465;28;20044;-75
2022/01/23 14:22:42;;;;;;;12.80;9.43;;;;;;;;;;12545571;28;20040;-74
2022/01/23 14:28:50;;;;;;;12.77;10.20;;;;;;;;;;12550465;28;20543;-74
2022/01/23 14:35:03;;;;;;;14.52;9.88;;;;;;;;;;12549927;28;20047;-74
2022/01/23 14:41:05;;;;;;;;;;;;;;;;;;12551663;28;20043;-74
2022/01/23 14:47:08;;;;;;;18.85;13.45;;;;;;;;;;12550217;28;20278;-74
2022/01/23 14:53:11;;;;;;;16.13;12.05;;;;;;;;;;12549907;28;20048;-74
2022/01/23 14:59:12;;;;;;;;;;;;;;;;;;12550974;28;20120;-74
2022/01/23 15:05:14;;;;;;;16.23;12.27;;;;;;;;;;12549643;28;19916;-74
2022/01/23 15:11:15;;;;;;;17.98;13.15;;;;;;;;;;12549890;28;20028;-75
2022/01/23 15:17:18;;;;;;;13.65;10.82;;;;;;;;;;12548037;28;20072;-75
2022/01/23 15:23:20;;;;;;;21.60;15.30;;;;;;;;;;12531956;28;20501;-75
2022/01/23 15:29:22;;;;;;;17.77;13.33;;;;;;;;;;12549118;28;20279;-75
2022/01/23 15:35:25;;;;;;;17.02;13.60;;;;;;;;;;12548575;28;20053;-75
2022/01/23 15:41:26;;;;;;;;;;;;;;;;;;12548826;28;20512;-75
2022/01/23 15:47:28;;;;;;;17.50;12.60;;;;;;;;;;12547334;28;20285;-75
2022/01/23 15:53:30;;;;;;;17.23;13.23;;;;;;;;;;12548300;28;20032;-75
2022/01/23 15:59:32;;;;;;;16.80;12.40;;;;;;;;;;12547730;28;20041;-75
2022/01/23 16:05:34;;;;;;;17.88;13.80;;;;;;;;;;12547841;28;20041;-75
2022/01/23 16:11:36;;;;;;;18.35;13.48;;;;;;;;;;12547140;28;20033;-75
2022/01/23 16:17:38;;;;;;;21.85;16.90;;;;;;;;;;12545796;28;20394;-75
2022/01/23 16:23:39;;;;;;;22.92;18.17;;;;;;;;;;12528889;28;20033;-74
2022/01/23 16:29:42;;;;;;;17.98;14.30;;;;;;;;;;12546164;28;20037;-74
2022/01/23 16:35:44;;;;;;;18.80;14.65;;;;;;;;;;12544526;28;20520;-75
2022/01/23 16:41:46;;;;;;;19.15;15.10;;;;;;;;;;12545050;28;20394;-74
2022/01/23 16:47:48;;;;;;;20.67;16.33;;;;;;;;;;12544068;28;20501;-75
2022/01/23 16:53:49;;;;;;;19.15;13.93;;;;;;;;;;12526788;28;20055;-75
2022/01/23 16:59:51;;;;;;;14.88;12.00;;;;;;;;;;12543543;28;20021;-74
2022/01/23 17:05:53;;;;;;;16.52;11.93;;;;;;;;;;12545370;28;20159;-74
2022/01/23 17:11:55;;;;;;;14.10;11.25;;;;;;;;;;12544553;28;20033;-75
2022/01/23 17:17:56;;;;;;;13.68;10.52;;;;;;;;;;12542561;28;20394;-75
2022/01/23 17:23:58;;;;;;;13.38;10.35;;;;;;;;;;12526146;28;20040;-75
2022/01/23 17:30:01;;;;;;;16.92;13.45;;;;;;;;;;12543845;28;20056;-75
2022/01/23 17:36:03;;;;;;;13.23;11.77;;;;;;;;;;12526091;28;20053;-75
2022/01/23 17:42:05;;;;;;;16.42;12.35;;;;;;;;;;12542680;28;20033;-74
2022/01/23 17:54:27;;;;;;;15.35;12.80;;;;;;;;;;12543039;28;20553;-76
2022/01/23 18:00:29;;;;;;;16.92;13.65;;;;;;;;;;12551181;28;20478;-75
2022/01/23 18:06:55;;;;;;;18.90;15.13;;;;;;;;;;12558700;28;20056;-74
2022/01/23 18:12:57;;;;;;;16.13;13.98;;;;;;;;;;12534424;28;20060;-74
2022/01/23 18:18:59;;;;;;;17.27;14.48;;;;;;;;;;12550871;28;20041;-74
2022/01/23 18:25:03;;;;;;;17.27;14.63;;;;;;;;;;12552178;28;20040;-76
2022/01/23 18:31:04;;;;;;;15.77;13.00;;;;;;;;;;12552197;28;20036;-75
2022/01/23 18:37:36;;;;;;;24.50;19.80;;;;;;;;;;12537679;28;20053;-76
2022/01/23 18:43:38;;;;;;;25.03;20.93;;;;;;;;;;12550808;28;20036;-74
2022/01/23 18:49:40;;;;;;;21.73;17.85;;;;;;;;;;12533460;28;20040;-75
2022/01/23 18:55:45;;;;;;;21.50;17.85;;;;;;;;;;12550437;28;20045;-75
2022/01/23 19:01:51;;;;;;;23.13;19.52;;;;;;;;;;12532585;28;20033;-75
2022/01/23 19:08:03;;;;;;;20.13;17.13;;;;;;;;;;12549178;28;20072;-75
2022/01/23 19:14:05;;;;;;;20.95;18.38;;;;;;;;;;12549774;28;20409;-75
2022/01/23 19:20:07;;;;;;;24.02;20.55;;;;;;;;;;12550286;28;20029;-74
2022/01/23 19:26:09;;;;;;;21.88;18.75;;;;;;;;;;12531193;28;20033;-75
2022/01/23 19:32:11;;;;;;;21.17;18.38;;;;;;;;;;12547830;28;20437;-75
2022/01/23 19:38:15;;;;;;;17.80;15.85;;;;;;;;;;12547744;28;20056;-73
2022/01/23 19:44:31;;;;;;;25.80;21.90;;;;;;;;;;12530664;28;20029;-75
2022/01/23 19:50:33;;;;;;;27.63;24.23;;;;;;;;;;12549783;28;20041;-75
2022/01/23 19:56:35;;;;;;;26.02;21.75;;;;;;;;;;12550798;28;20059;-75
2022/01/23 20:02:36;;;;;;;23.55;20.10;;;;;;;;;;12552861;28;20397;-75
2022/01/23 20:08:40;;;;;;;24.48;21.80;;;;;;;;;;12549862;28;20044;-74
2022/01/23 20:14:42;;;;;;;23.55;20.88;;;;;;;;;;12545792;28;20048;-75
2022/01/23 20:20:44;;;;;;;27.90;23.67;;;;;;;;;;12528187;28;20517;-77
2022/01/23 20:26:45;;;;;;;27.77;23.70;;;;;;;;;;12546221;28;20041;-75
2022/01/23 20:32:48;;;;;;;25.20;21.85;;;;;;;;;;12545775;28;20451;-75
2022/01/23 20:38:53;;;;;;;25.75;22.73;;;;;;;;;;12545164;28;20056;-76
2022/01/23 20:44:54;;;;;;;31.77;26.45;;;;;;;;;;12546041;28;20029;-76
2022/01/23 20:50:59;;;;;;;31.52;25.88;;;;;;;;;;12545089;28;20044;-75
2022/01/23 20:57:02;;;;;;;37.70;30.58;;;;;;;;;;12543318;28;20041;-75
2022/01/23 21:03:04;;;;;;;28.13;24.95;;;;;;;;;;12543569;28;20040;-76
2022/01/23 21:09:08;;;;;;;33.33;29.00;;;;;;;;;;12544517;28;20040;-76
2022/01/23 21:39:56;;;;;;;35.92;31.08;;;;;;;;;;12542216;28;20498;-75
2022/01/23 21:45:58;;;;;;;35.97;32.05;;;;;;;;;;12526729;28;20033;-75
2022/01/23 21:52:00;;;;;;;43.05;33.85;;;;;;;;;;12525766;28;20036;-75
2022/01/23 21:58:01;;;;;;;41.88;31.17;;;;;;;;;;12543264;28;20041;-75
2022/01/23 22:04:03;;;;;;;39.80;32.67;;;;;;;;;;12543329;28;20481;-75
2022/01/23 22:16:25;;;;;;;33.63;27.63;;;;;;;;;;12543221;28;20044;-75
2022/01/23 22:22:43;;;;;;;48.97;38.60;;;;;;;;;;12542247;28;20040;-75
2022/01/23 22:28:45;;;;;;;45.25;40.30;;;;;;;;;;12540830;28;20037;-74
2022/01/23 22:34:48;;;;;;;44.78;36.60;;;;;;;;;;12542781;28;20059;-74
2022/01/23 22:40:49;;;;;;;52.22;31.73;;;;;;;;;;12524455;28;20482;-74
2022/01/23 22:46:51;;;;;;;45.92;32.65;;;;;;;;;;12551477;28;20040;-75
2022/01/23 22:52:53;;;;;;;45.45;31.02;;;;;;;;;;12551917;28;20044;-75
2022/01/23 22:58:54;;;;;;;51.45;37.13;;;;;;;;;;12550553;28;20037;-75
2022/01/23 23:04:56;;;;;;;43.72;39.03;;;;;;;;;;12549720;28;20040;-76
2022/01/23 23:10:58;;;;;;;32.50;24.33;;;;;;;;;;12550464;28;20039;-76
2022/01/23 23:17:02;;;;;;;51.17;32.33;;;;;;;;;;12549864;28;20036;-75
2022/01/23 23:23:04;;;;;;;29.23;23.90;;;;;;;;;;12548452;28;20045;-75
2022/01/23 23:29:06;;;;;;;49.78;31.25;;;;;;;;;;12548297;28;20034;-75
2022/01/23 23:35:08;;;;;;;43.03;28.70;;;;;;;;;;12548063;28;20053;-75
2022/01/23 23:47:12;;;;;;;34.90;25.02;;;;;;;;;;12547488;28;20056;-75
2022/01/23 23:53:16;;;;;;;33.53;22.95;;;;;;;;;;12548376;28;20048;-75
2022/01/23 23:59:18;;;;;;;35.33;25.83;;;;;;;;;;12547094;28;20398;-75
